Time;durP1;ratioP1;P1;durP2;ratioP2;P2;SDS_P1;SDS_P2;PMS_P1;PMS_P2;Temp;Humidity;BMP_temperature;BMP_pressure;BME280_temperature;BME280_humidity;BME280_pressure;Samples;Min_cycle;Max_cycle;Signal;HPM_P1;HPM_P2
2024/03/21 00:02:19;;;;;;;238.23;73.50;;;;;;;;;;5011127;28;20187;-44
2024/03/21 00:04:45;;;;;;;238.48;72.38;;;;;;;;;;5011012;28;20539;-44
2024/03/21 00:07:11;;;;;;;236.07;71.43;;;;;;;;;;5010881;28;20301;-44
2024/03/21 00:09:38;;;;;;;237.18;71.50;;;;;;;;;;5011084;28;20469;-44
2024/03/21 00:12:05;;;;;;;235.07;68.80;;;;;;;;;;5011444;28;20178;-44
2024/03/21 00:14:31;;;;;;;238.57;72.57;;;;;;;;;;5010989;28;20924;-44
2024/03/21 00:17:00;;;;;;;236.13;70.40;;;;;;;;;;5010671;28;20292;-43
2024/03/21 00:19:26;;;;;;;238.23;73.63;;;;;;;;;;5010623;28;20431;-43
2024/03/21 00:21:52;;;;;;;237.67;72.03;;;;;;;;;;5010984;28;20564;-44
2024/03/21 00:24:19;;;;;;;231.67;66.73;;;;;;;;;;5010790;28;20461;-44
2024/03/21 00:26:45;;;;;;;239.00;73.97;;;;;;;;;;5010474;28;20436;-44
2024/03/21 00:29:13;;;;;;;240.00;75.37;;;;;;;;;;5011192;28;20177;-44
2024/03/21 00:31:39;;;;;;;238.43;70.93;;;;;;;;;;5010664;28;20409;-44
2024/03/21 00:34:06;;;;;;;237.95;72.70;;;;;;;;;;5009779;28;20637;-44
2024/03/21 00:36:32;;;;;;;234.35;68.28;;;;;;;;;;5010623;28;20658;-44
2024/03/21 00:38:59;;;;;;;235.35;70.82;;;;;;;;;;5010909;28;20646;-44
2024/03/21 00:41:25;;;;;;;238.60;72.93;;;;;;;;;;5010421;28;20191;-44
2024/03/21 00:43:51;;;;;;;238.37;75.57;;;;;;;;;;5011097;28;20276;-43
2024/03/21 00:46:17;;;;;;;237.03;71.77;;;;;;;;;;5010441;28;20471;-44
2024/03/21 00:48:44;;;;;;;238.40;74.73;;;;;;;;;;5010888;28;20409;-44
2024/03/21 00:51:10;;;;;;;235.30;72.13;;;;;;;;;;5010936;28;20496;-44
2024/03/21 00:53:36;;;;;;;235.57;70.03;;;;;;;;;;5010789;28;20706;-44
2024/03/21 00:56:02;;;;;;;236.98;73.07;;;;;;;;;;5010423;28;20435;-44
2024/03/21 00:58:29;;;;;;;233.73;69.78;;;;;;;;;;5010768;28;20474;-44
2024/03/21 01:00:55;;;;;;;234.82;69.55;;;;;;;;;;5011163;28;20188;-43
2024/03/21 01:03:22;;;;;;;238.48;75.00;;;;;;;;;;5010851;28;20209;-43
2024/03/21 01:05:51;;;;;;;239.30;73.18;;;;;;;;;;5010384;28;20202;-43
2024/03/21 01:08:18;;;;;;;238.05;75.20;;;;;;;;;;5010697;28;20646;-44
2024/03/21 01:10:51;;;;;;;238.45;73.82;;;;;;;;;;5010568;28;20662;-43
2024/03/21 01:13:32;;;;;;;238.13;72.93;;;;;;;;;;5010745;28;20742;-44
2024/03/21 01:15:58;;;;;;;232.57;67.90;;;;;;;;;;5010749;28;20393;-44
2024/03/21 01:18:34;;;;;;;239.87;76.70;;;;;;;;;;5010592;28;20228;-44
2024/03/21 01:21:00;;;;;;;235.73;71.07;;;;;;;;;;5010591;28;20412;-44
2024/03/21 01:23:26;;;;;;;236.45;71.10;;;;;;;;;;5010059;28;20174;-44
2024/03/21 01:25:52;;;;;;;234.10;69.20;;;;;;;;;;5010066;28;20219;-43
2024/03/21 01:28:18;;;;;;;238.10;72.87;;;;;;;;;;5010447;28;20462;-44
2024/03/21 01:30:44;;;;;;;233.57;67.50;;;;;;;;;;5012436;28;20436;-44
2024/03/21 01:33:10;;;;;;;238.67;78.00;;;;;;;;;;5014136;28;20412;-44
2024/03/21 01:35:36;;;;;;;234.73;69.83;;;;;;;;;;5013532;28;20463;-44
2024/03/21 01:38:04;;;;;;;237.83;75.87;;;;;;;;;;5014330;28;20940;-44
2024/03/21 01:40:30;;;;;;;234.60;71.68;;;;;;;;;;5014014;28;20824;-44
2024/03/21 01:42:56;;;;;;;236.60;74.47;;;;;;;;;;5014142;28;20259;-44
2024/03/21 01:45:22;;;;;;;235.82;71.20;;;;;;;;;;5013678;28;20467;-44
2024/03/21 01:47:48;;;;;;;235.05;71.22;;;;;;;;;;5013815;28;20194;-43
2024/03/21 01:50:14;;;;;;;233.27;68.10;;;;;;;;;;5013791;28;20178;-43
2024/03/21 01:52:41;;;;;;;233.10;69.60;;;;;;;;;;5014097;28;20454;-43
2024/03/21 01:55:08;;;;;;;236.80;74.03;;;;;;;;;;5013655;28;20416;-44
2024/03/21 01:57:38;;;;;;;234.23;69.07;;;;;;;;;;5013503;28;20191;-44
2024/03/21 02:00:04;;;;;;;236.20;71.25;;;;;;;;;;5013716;28;20277;-44
2024/03/21 02:02:30;;;;;;;237.20;73.05;;;;;;;;;;5013063;28;20231;-43
2024/03/21 02:04:56;;;;;;;235.27;71.90;;;;;;;;;;5012769;28;20196;-44
2024/03/21 02:07:22;;;;;;;237.88;73.20;;;;;;;;;;5012620;28;20535;-44
2024/03/21 02:09:52;;;;;;;234.60;68.80;;;;;;;;;;5013361;28;20194;-43
2024/03/21 02:12:38;;;;;;;232.63;69.13;;;;;;;;;;5013318;28;20195;-44
2024/03/21 02:15:05;;;;;;;234.05;70.55;;;;;;;;;;5013088;28;20182;-44
2024/03/21 02:17:31;;;;;;;235.27;72.40;;;;;;;;;;5013005;28;20196;-44
2024/03/21 02:19:57;;;;;;;236.70;74.87;;;;;;;;;;5013570;28;20552;-44
2024/03/21 02:22:44;;;;;;;235.50;71.80;;;;;;;;;;5013163;28;20820;-44
2024/03/21 02:25:10;;;;;;;237.95;74.63;;;;;;;;;;5012681;28;20474;-44
2024/03/21 02:27:36;;;;;;;234.48;71.95;;;;;;;;;;5012797;28;20210;-44
2024/03/21 02:30:03;;;;;;;233.45;70.82;;;;;;;;;;5012999;28;20655;-44
2024/03/21 02:32:28;;;;;;;233.98;69.85;;;;;;;;;;5013115;28;20172;-44
2024/03/21 02:34:55;;;;;;;236.50;73.07;;;;;;;;;;5013440;28;20251;-44
2024/03/21 02:37:21;;;;;;;234.65;71.43;;;;;;;;;;5012788;28;20436;-43
2024/03/21 02:39:50;;;;;;;236.98;76.15;;;;;;;;;;5012910;28;20176;-44
2024/03/21 02:42:16;;;;;;;235.95;71.75;;;;;;;;;;5013010;28;20623;-44
2024/03/21 02:44:42;;;;;;;235.00;72.10;;;;;;;;;;5012879;28;20208;-44
2024/03/21 02:47:08;;;;;;;235.93;72.68;;;;;;;;;;5009497;28;20871;-45
2024/03/21 02:49:34;;;;;;;233.80;68.93;;;;;;;;;;5012246;28;20256;-44
2024/03/21 02:52:00;;;;;;;235.40;75.10;;;;;;;;;;5012411;28;20757;-44
2024/03/21 02:54:26;;;;;;;236.67;73.50;;;;;;;;;;5012392;28;20404;-43
2024/03/21 02:56:52;;;;;;;231.73;68.53;;;;;;;;;;5012417;28;20434;-44
2024/03/21 02:59:18;;;;;;;235.50;75.00;;;;;;;;;;5012556;28;20185;-44
2024/03/21 03:01:44;;;;;;;235.07;71.87;;;;;;;;;;5012494;28;20833;-44
2024/03/21 03:04:10;;;;;;;232.83;67.57;;;;;;;;;;5012406;28;20408;-44
2024/03/21 03:06:36;;;;;;;235.25;70.85;;;;;;;;;;5011748;28;20447;-44
2024/03/21 03:09:02;;;;;;;233.52;70.72;;;;;;;;;;5009873;28;20182;-44
2024/03/21 03:11:28;;;;;;;236.05;72.53;;;;;;;;;;5012125;28;20284;-44
2024/03/21 03:13:54;;;;;;;235.70;72.88;;;;;;;;;;5012318;28;20256;-43
2024/03/21 03:16:20;;;;;;;233.33;69.70;;;;;;;;;;5012101;28;20639;-44
2024/03/21 03:18:46;;;;;;;233.97;71.97;;;;;;;;;;5012163;28;20569;-43
2024/03/21 03:21:12;;;;;;;237.23;76.47;;;;;;;;;;5011991;28;20413;-44
2024/03/21 03:23:38;;;;;;;233.87;71.07;;;;;;;;;;5011178;28;20427;-44
2024/03/21 03:26:04;;;;;;;233.70;70.87;;;;;;;;;;5017265;28;20487;-44
2024/03/21 03:28:30;;;;;;;234.57;70.33;;;;;;;;;;5011772;28;20777;-44
2024/03/21 03:30:56;;;;;;;234.50;72.10;;;;;;;;;;5011701;28;20770;-44
2024/03/21 03:36:07;;;;;;;231.35;67.55;;;;;;;;;;5007373;28;20447;-43
2024/03/21 03:38:33;;;;;;;233.88;68.88;;;;;;;;;;5011452;28;20200;-44
2024/03/21 03:40:59;;;;;;;235.75;73.43;;;;;;;;;;5011572;28;20181;-43
2024/03/21 03:43:25;;;;;;;231.80;69.50;;;;;;;;;;5011736;28;20177;-44
2024/03/21 03:45:51;;;;;;;233.13;68.07;;;;;;;;;;5006038;28;20457;-43
2024/03/21 03:48:17;;;;;;;234.47;70.07;;;;;;;;;;5011275;28;20538;-44
2024/03/21 03:50:43;;;;;;;233.87;72.33;;;;;;;;;;5011627;28;20426;-43
2024/03/21 03:53:08;;;;;;;233.33;70.07;;;;;;;;;;5010894;28;20405;-44
2024/03/21 03:55:34;;;;;;;236.47;75.27;;;;;;;;;;5010994;28;20504;-44
2024/03/21 03:58:00;;;;;;;232.70;69.00;;;;;;;;;;5011147;28;20477;-44
2024/03/21 04:00:26;;;;;;;233.47;69.17;;;;;;;;;;5011229;28;20418;-44
2024/03/21 04:02:52;;;;;;;235.13;70.90;;;;;;;;;;5011013;28;20424;-44
2024/03/21 04:05:18;;;;;;;241.93;76.63;;;;;;;;;;5010757;28;20473;-44
2024/03/21 04:07:45;;;;;;;238.50;76.77;;;;;;;;;;5011258;28;20445;-44
2024/03/21 04:10:11;;;;;;;236.75;75.10;;;;;;;;;;5011341;28;20412;-44
2024/03/21 04:12:38;;;;;;;236.13;69.47;;;;;;;;;;5010999;28;20170;-44
2024/03/21 04:15:04;;;;;;;245.15;78.47;;;;;;;;;;5011173;28;20213;-44
2024/03/21 04:17:30;;;;;;;235.50;73.22;;;;;;;;;;5010679;28;20252;-44
2024/03/21 04:19:56;;;;;;;234.30;71.33;;;;;;;;;;5011044;28;20189;-43
2024/03/21 04:22:22;;;;;;;235.97;72.70;;;;;;;;;;5010968;28;20500;-44
2024/03/21 04:24:48;;;;;;;234.40;72.13;;;;;;;;;;5011581;28;20884;-44
2024/03/21 04:27:14;;;;;;;233.50;68.40;;;;;;;;;;5010608;28;20437;-44
2024/03/21 04:29:40;;;;;;;234.17;70.53;;;;;;;;;;5008011;28;20751;-44
2024/03/21 04:32:06;;;;;;;235.07;70.53;;;;;;;;;;5011035;28;20490;-44
2024/03/21 04:34:33;;;;;;;235.40;70.53;;;;;;;;;;5011373;28;20205;-44
2024/03/21 04:36:59;;;;;;;234.40;69.30;;;;;;;;;;5010697;28;20474;-44
2024/03/21 04:39:25;;;;;;;235.37;68.97;;;;;;;;;;5010908;28;20178;-44
2024/03/21 04:41:50;;;;;;;236.87;73.33;;;;;;;;;;5010601;28;20445;-44
2024/03/21 04:44:16;;;;;;;235.23;72.20;;;;;;;;;;5010757;28;20424;-44
2024/03/21 04:46:42;;;;;;;236.37;71.23;;;;;;;;;;5010228;28;20611;-44
2024/03/21 04:49:08;;;;;;;233.73;68.15;;;;;;;;;;5010725;28;20400;-43
2024/03/21 04:51:34;;;;;;;232.60;67.83;;;;;;;;;;5010697;28;20190;-44
2024/03/21 04:54:00;;;;;;;236.30;73.70;;;;;;;;;;5010648;28;20433;-44
2024/03/21 04:56:26;;;;;;;236.63;72.67;;;;;;;;;;5010417;28;20441;-44
2024/03/21 04:58:53;;;;;;;232.27;66.90;;;;;;;;;;5010739;28;20425;-43
2024/03/21 05:01:19;;;;;;;233.23;68.70;;;;;;;;;;5010627;28;20464;-44
2024/03/21 05:03:46;;;;;;;234.13;71.07;;;;;;;;;;5010911;28;20189;-44
2024/03/21 05:06:12;;;;;;;233.20;69.38;;;;;;;;;;5014020;28;20467;-44
2024/03/21 05:08:38;;;;;;;237.43;72.80;;;;;;;;;;5014325;28;20164;-43
2024/03/21 05:11:04;;;;;;;233.97;69.93;;;;;;;;;;5014557;28;20405;-44
2024/03/21 05:13:30;;;;;;;237.52;73.40;;;;;;;;;;5014551;28;20778;-43
2024/03/21 05:15:56;;;;;;;234.80;69.27;;;;;;;;;;5013681;28;20212;-44
2024/03/21 05:18:21;;;;;;;234.00;69.47;;;;;;;;;;5014366;28;20419;-43
2024/03/21 05:20:47;;;;;;;235.00;69.70;;;;;;;;;;5014797;28;20408;-44
2024/03/21 05:23:13;;;;;;;233.80;68.00;;;;;;;;;;5013959;28;20419;-44
2024/03/21 05:25:39;;;;;;;234.00;67.20;;;;;;;;;;5013681;28;20446;-44
2024/03/21 05:28:05;;;;;;;229.83;65.67;;;;;;;;;;5014203;28;20978;-44
2024/03/21 05:30:31;;;;;;;233.95;67.88;;;;;;;;;;5014151;28;20419;-44
2024/03/21 05:32:57;;;;;;;234.83;71.53;;;;;;;;;;5014082;28;20173;-43
2024/03/21 05:35:24;;;;;;;234.40;67.38;;;;;;;;;;5013711;28;20414;-44
2024/03/21 05:37:50;;;;;;;233.68;67.72;;;;;;;;;;5013988;28;20192;-44
2024/03/21 05:40:16;;;;;;;229.97;64.00;;;;;;;;;;5014444;28;20563;-44
2024/03/21 05:42:47;;;;;;;232.77;67.40;;;;;;;;;;5014021;28;20418;-43
2024/03/21 05:45:13;;;;;;;237.40;73.40;;;;;;;;;;5013827;28;20485;-44
2024/03/21 05:47:39;;;;;;;234.83;69.23;;;;;;;;;;5013924;28;20190;-43
2024/03/21 05:50:06;;;;;;;231.47;64.53;;;;;;;;;;5013934;28;20510;-44
2024/03/21 05:52:32;;;;;;;231.07;64.38;;;;;;;;;;5013752;28;20411;-43
2024/03/21 05:54:59;;;;;;;232.47;65.63;;;;;;;;;;5013826;28;20550;-45
2024/03/21 05:57:25;;;;;;;233.85;66.05;;;;;;;;;;5013263;28;20822;-45
2024/03/21 05:59:54;;;;;;;232.15;66.25;;;;;;;;;;5012415;28;20775;-43
2024/03/21 06:02:20;;;;;;;231.57;66.47;;;;;;;;;;5014036;28;20168;-44
2024/03/21 06:04:46;;;;;;;234.50;70.07;;;;;;;;;;5013531;28;20270;-44
2024/03/21 06:07:12;;;;;;;230.68;64.38;;;;;;;;;;5013002;28;20982;-44
2024/03/21 06:09:38;;;;;;;231.98;67.57;;;;;;;;;;5013618;28;20181;-44
2024/03/21 06:12:04;;;;;;;236.33;72.00;;;;;;;;;;5013321;28;20172;-44
2024/03/21 06:14:30;;;;;;;230.85;63.78;;;;;;;;;;5013298;28;20496;-43
2024/03/21 06:16:57;;;;;;;231.53;66.90;;;;;;;;;;5011143;28;20286;-43
2024/03/21 06:19:23;;;;;;;232.30;66.07;;;;;;;;;;5013403;28;21043;-43
2024/03/21 06:21:49;;;;;;;232.17;67.57;;;;;;;;;;5013292;28;20179;-43
2024/03/21 06:24:15;;;;;;;234.13;71.07;;;;;;;;;;5013151;28;20904;-44
2024/03/21 06:26:41;;;;;;;238.98;74.82;;;;;;;;;;5012651;28;20416;-44
2024/03/21 06:29:07;;;;;;;230.57;66.03;;;;;;;;;;5013131;28;20179;-43
2024/03/21 06:31:32;;;;;;;234.57;70.33;;;;;;;;;;5011926;28;20280;-44
2024/03/21 06:33:59;;;;;;;233.27;68.57;;;;;;;;;;5012345;28;20411;-44
2024/03/21 06:36:25;;;;;;;238.18;72.57;;;;;;;;;;5011719;28;20447;-45
2024/03/21 06:38:51;;;;;;;232.48;66.82;;;;;;;;;;5010900;28;20185;-43
2024/03/21 06:41:17;;;;;;;231.77;65.88;;;;;;;;;;5012089;28;20184;-44
2024/03/21 06:43:43;;;;;;;231.43;66.00;;;;;;;;;;5011931;28;20187;-43
2024/03/21 06:46:09;;;;;;;230.37;64.57;;;;;;;;;;5011928;28;20468;-44
2024/03/21 06:48:35;;;;;;;234.60;68.10;;;;;;;;;;5012265;28;21030;-44
2024/03/21 06:51:06;;;;;;;230.17;64.40;;;;;;;;;;5009556;28;20958;-44
2024/03/21 06:53:32;;;;;;;235.50;71.45;;;;;;;;;;5012396;28;20947;-43
2024/03/21 06:55:59;;;;;;;230.93;64.93;;;;;;;;;;5012163;28;20201;-43
2024/03/21 06:58:26;;;;;;;231.65;65.78;;;;;;;;;;5012545;28;20409;-44
2024/03/21 07:00:53;;;;;;;235.25;69.13;;;;;;;;;;5011360;28;20185;-44
2024/03/21 07:03:19;;;;;;;234.93;70.22;;;;;;;;;;5012243;28;20181;-44
2024/03/21 07:05:45;;;;;;;229.90;62.15;;;;;;;;;;5011748;28;20196;-43
2024/03/21 07:08:11;;;;;;;234.25;69.38;;;;;;;;;;5012156;28;20182;-44
2024/03/21 07:10:37;;;;;;;229.70;64.10;;;;;;;;;;5012182;28;20180;-44
2024/03/21 07:13:03;;;;;;;232.10;65.33;;;;;;;;;;5012443;28;20406;-43
2024/03/21 07:15:29;;;;;;;233.02;68.38;;;;;;;;;;5012031;28;20411;-44
2024/03/21 07:17:55;;;;;;;234.10;70.90;;;;;;;;;;5012081;28;20231;-43
2024/03/21 07:20:22;;;;;;;230.10;63.47;;;;;;;;;;5012178;28;20421;-44
2024/03/21 07:22:48;;;;;;;235.88;71.40;;;;;;;;;;5010843;28;20424;-44
2024/03/21 07:25:15;;;;;;;238.13;71.22;;;;;;;;;;5011417;28;20676;-44
2024/03/21 07:27:42;;;;;;;231.32;64.95;;;;;;;;;;5007931;28;20280;-43
2024/03/21 07:30:11;;;;;;;230.32;64.85;;;;;;;;;;5011849;28;20174;-44
2024/03/21 07:32:37;;;;;;;233.32;67.93;;;;;;;;;;5011683;28;20186;-45
2024/03/21 07:35:03;;;;;;;232.90;65.38;;;;;;;;;;5011473;28;20177;-44
2024/03/21 07:37:29;;;;;;;234.40;67.90;;;;;;;;;;5011257;28;20197;-44
2024/03/21 07:39:55;;;;;;;232.80;68.57;;;;;;;;;;5011596;28;20631;-44
2024/03/21 07:42:21;;;;;;;231.85;66.38;;;;;;;;;;5011931;28;20889;-44
2024/03/21 07:44:47;;;;;;;234.37;71.13;;;;;;;;;;5011617;28;20237;-43
2024/03/21 07:47:13;;;;;;;236.80;71.37;;;;;;;;;;5011089;28;20532;-44
2024/03/21 07:49:39;;;;;;;235.87;68.90;;;;;;;;;;5011357;28;20415;-44
2024/03/21 07:52:05;;;;;;;241.23;75.20;;;;;;;;;;5011278;28;20930;-44
2024/03/21 07:54:33;;;;;;;243.07;79.13;;;;;;;;;;5011449;28;20501;-44
2024/03/21 07:56:59;;;;;;;243.70;82.87;;;;;;;;;;5011045;28;20904;-44
2024/03/21 07:59:25;;;;;;;246.93;82.67;;;;;;;;;;5011272;28;21049;-44
2024/03/21 08:01:51;;;;;;;244.60;81.90;;;;;;;;;;5011259;28;20449;-44
2024/03/21 08:04:17;;;;;;;240.17;77.37;;;;;;;;;;5011533;28;20414;-44
2024/03/21 08:06:46;;;;;;;242.43;78.27;;;;;;;;;;5009380;28;20439;-44
2024/03/21 08:09:12;;;;;;;240.33;77.60;;;;;;;;;;5011467;28;20395;-43
2024/03/21 08:11:38;;;;;;;240.07;75.73;;;;;;;;;;5011287;28;20406;-45
2024/03/21 08:14:04;;;;;;;239.27;77.30;;;;;;;;;;5011191;28;20815;-43
2024/03/21 08:16:30;;;;;;;245.17;81.50;;;;;;;;;;5008203;28;20442;-44
2024/03/21 08:18:56;;;;;;;238.27;74.47;;;;;;;;;;5010777;28;20990;-44
2024/03/21 08:21:22;;;;;;;244.83;81.03;;;;;;;;;;5009206;28;20412;-44
2024/03/21 08:23:48;;;;;;;239.93;76.70;;;;;;;;;;5010960;28;20421;-44
2024/03/21 08:26:16;;;;;;;237.93;77.20;;;;;;;;;;5009579;28;20490;-44
2024/03/21 08:28:42;;;;;;;245.03;80.23;;;;;;;;;;5008632;28;20457;-45
2024/03/21 08:31:08;;;;;;;237.10;72.90;;;;;;;;;;5010606;28;20820;-44
2024/03/21 08:33:34;;;;;;;239.37;76.67;;;;;;;;;;5010301;28;20419;-44
2024/03/21 08:36:00;;;;;;;248.80;84.97;;;;;;;;;;5009527;28;20500;-44
2024/03/21 08:38:26;;;;;;;241.47;77.80;;;;;;;;;;5011298;28;20413;-44
2024/03/21 08:40:53;;;;;;;235.17;70.87;;;;;;;;;;5016958;28;20835;-44
2024/03/21 08:43:19;;;;;;;239.47;76.07;;;;;;;;;;5016955;28;20419;-44
2024/03/21 08:45:48;;;;;;;240.20;76.60;;;;;;;;;;5017077;28;20515;-44
2024/03/21 08:48:14;;;;;;;237.13;73.17;;;;;;;;;;5013155;28;20435;-43
2024/03/21 08:50:41;;;;;;;239.47;76.77;;;;;;;;;;5016536;28;20502;-45
2024/03/21 08:53:07;;;;;;;238.20;74.77;;;;;;;;;;5017257;28;20407;-44
2024/03/21 08:55:34;;;;;;;238.00;73.70;;;;;;;;;;5017137;28;20490;-44
2024/03/21 08:58:00;;;;;;;237.47;77.43;;;;;;;;;;5016199;28;20418;-44
2024/03/21 09:00:25;;;;;;;238.67;75.63;;;;;;;;;;5017166;28;20414;-44
2024/03/21 09:02:52;;;;;;;240.30;76.63;;;;;;;;;;5017502;28;20411;-44
2024/03/21 09:05:17;;;;;;;245.57;82.20;;;;;;;;;;5017840;28;20458;-43
2024/03/21 09:07:44;;;;;;;240.30;77.77;;;;;;;;;;5017225;28;20968;-43
2024/03/21 09:10:10;;;;;;;242.73;80.93;;;;;;;;;;5015944;28;21057;-44
2024/03/21 09:12:36;;;;;;;245.97;81.77;;;;;;;;;;5016516;28;20506;-44
2024/03/21 09:15:04;;;;;;;242.07;81.70;;;;;;;;;;5016832;28;20404;-44
2024/03/21 09:17:30;;;;;;;245.37;83.93;;;;;;;;;;5016518;28;20432;-44
2024/03/21 09:19:56;;;;;;;245.33;82.97;;;;;;;;;;5016426;28;20761;-44
2024/03/21 09:22:22;;;;;;;244.47;82.67;;;;;;;;;;5015524;28;20840;-44
2024/03/21 09:24:48;;;;;;;240.70;79.83;;;;;;;;;;5016333;28;20837;-44
2024/03/21 09:27:14;;;;;;;244.07;83.23;;;;;;;;;;5015544;28;20440;-45
2024/03/21 09:29:40;;;;;;;241.33;80.63;;;;;;;;;;5015780;28;20408;-45
2024/03/21 09:32:06;;;;;;;245.67;84.13;;;;;;;;;;5016688;28;20420;-44
2024/03/21 09:34:32;;;;;;;243.70;80.30;;;;;;;;;;5016158;28;20471;-44
2024/03/21 09:36:58;;;;;;;243.20;81.23;;;;;;;;;;5015670;28;20806;-44
2024/03/21 09:39:24;;;;;;;240.50;77.37;;;;;;;;;;5017123;28;20831;-43
2024/03/21 09:41:53;;;;;;;244.53;82.87;;;;;;;;;;5017261;28;20836;-44
2024/03/21 09:44:19;;;;;;;240.47;78.37;;;;;;;;;;5016923;28;20405;-44
2024/03/21 09:46:46;;;;;;;242.37;81.47;;;;;;;;;;5016439;28;20444;-44
2024/03/21 09:49:13;;;;;;;241.27;80.47;;;;;;;;;;5016932;28;20443;-43
2024/03/21 09:51:40;;;;;;;238.97;77.37;;;;;;;;;;5013514;28;20418;-43
2024/03/21 09:54:10;;;;;;;243.60;83.80;;;;;;;;;;5013809;28;20445;-44
2024/03/21 09:56:36;;;;;;;240.30;79.90;;;;;;;;;;5013385;28;20465;-44
2024/03/21 09:59:03;;;;;;;246.10;84.23;;;;;;;;;;5013644;28;20672;-43
2024/03/21 10:01:28;;;;;;;246.00;86.63;;;;;;;;;;5013803;28;20425;-44
2024/03/21 10:03:58;;;;;;;242.93;81.13;;;;;;;;;;5013788;28;20418;-44
2024/03/21 10:06:27;;;;;;;243.73;85.70;;;;;;;;;;5013142;28;20464;-44
2024/03/21 10:08:53;;;;;;;243.07;82.57;;;;;;;;;;5013486;28;20446;-44
2024/03/21 10:11:20;;;;;;;243.10;81.60;;;;;;;;;;5013430;28;20415;-44
2024/03/21 10:13:46;;;;;;;242.23;82.70;;;;;;;;;;5013347;28;20423;-44
2024/03/21 10:16:14;;;;;;;244.53;84.60;;;;;;;;;;5013057;28;20522;-43
2024/03/21 10:18:40;;;;;;;239.30;80.67;;;;;;;;;;5012253;28;20794;-44
2024/03/21 10:21:26;;;;;;;242.40;83.03;;;;;;;;;;5013333;28;20418;-44
2024/03/21 10:24:02;;;;;;;239.17;77.80;;;;;;;;;;5014095;28;20415;-44
2024/03/21 10:26:29;;;;;;;238.87;78.10;;;;;;;;;;5013045;28;20462;-44
2024/03/21 10:28:55;;;;;;;240.10;81.90;;;;;;;;;;5013241;28;20910;-44
2024/03/21 10:31:21;;;;;;;240.43;80.57;;;;;;;;;;5013363;28;20795;-44
2024/03/21 10:33:47;;;;;;;238.70;76.97;;;;;;;;;;5013207;28;20414;-44
2024/03/21 10:36:14;;;;;;;244.07;83.77;;;;;;;;;;5012697;28;20822;-44
2024/03/21 10:38:40;;;;;;;242.70;84.57;;;;;;;;;;5012669;28;20906;-45
2024/03/21 10:41:14;;;;;;;238.30;77.07;;;;;;;;;;5013189;28;20416;-45
2024/03/21 10:43:42;;;;;;;243.30;83.20;;;;;;;;;;5012894;28;20438;-44
2024/03/21 10:46:10;;;;;;;242.57;82.17;;;;;;;;;;5012617;28;20470;-44
2024/03/21 10:48:37;;;;;;;242.83;81.33;;;;;;;;;;5012744;28;20426;-44
2024/03/21 10:51:13;;;;;;;240.23;80.97;;;;;;;;;;5013229;28;20407;-44
2024/03/21 10:53:40;;;;;;;246.37;83.40;;;;;;;;;;5012565;28;20417;-44
2024/03/21 10:56:08;;;;;;;237.83;77.83;;;;;;;;;;5012348;28;20434;-44
2024/03/21 10:58:42;;;;;;;240.93;78.67;;;;;;;;;;5012499;28;20546;-44
2024/03/21 11:01:08;;;;;;;242.73;82.67;;;;;;;;;;5012632;28;20464;-44
2024/03/21 11:03:47;;;;;;;242.57;81.87;;;;;;;;;;5012684;28;20425;-44
2024/03/21 11:06:13;;;;;;;237.27;75.87;;;;;;;;;;5012170;28;20471;-44
2024/03/21 11:08:51;;;;;;;239.57;79.73;;;;;;;;;;5012421;28;20427;-44
2024/03/21 11:11:17;;;;;;;240.83;80.90;;;;;;;;;;5012972;28;20882;-44
2024/03/21 11:13:43;;;;;;;241.57;82.13;;;;;;;;;;5012405;28;20413;-43
2024/03/21 11:16:09;;;;;;;240.33;80.67;;;;;;;;;;5011763;28;20441;-44
2024/03/21 11:18:35;;;;;;;241.53;79.13;;;;;;;;;;5012236;28;20846;-44
2024/03/21 11:21:01;;;;;;;242.10;81.77;;;;;;;;;;5012314;28;20454;-44
2024/03/21 11:23:28;;;;;;;241.07;80.30;;;;;;;;;;5012024;28;20452;-44
2024/03/21 11:25:54;;;;;;;240.20;79.37;;;;;;;;;;5011742;28;20466;-45
2024/03/21 11:28:20;;;;;;;239.73;80.17;;;;;;;;;;5011902;28;20423;-44
2024/03/21 11:30:46;;;;;;;241.53;81.80;;;;;;;;;;5011961;28;20412;-45
2024/03/21 11:33:12;;;;;;;244.13;84.40;;;;;;;;;;5012196;28;20450;-44
2024/03/21 11:35:39;;;;;;;242.07;81.27;;;;;;;;;;5011515;28;20507;-45
2024/03/21 11:38:06;;;;;;;240.13;79.33;;;;;;;;;;5011878;28;20420;-44
2024/03/21 11:40:32;;;;;;;245.07;86.27;;;;;;;;;;5011792;28;20798;-45
2024/03/21 11:43:05;;;;;;;241.13;79.47;;;;;;;;;;5011736;28;20857;-44
2024/03/21 11:45:31;;;;;;;245.17;86.50;;;;;;;;;;5011262;28;20473;-44
2024/03/21 11:48:10;;;;;;;238.33;79.87;;;;;;;;;;5011624;28;20447;-44
2024/03/21 11:50:37;;;;;;;246.93;89.87;;;;;;;;;;5011762;28;20433;-44
2024/03/21 11:53:04;;;;;;;245.50;85.93;;;;;;;;;;5011865;28;20469;-45
2024/03/21 11:55:30;;;;;;;246.87;88.33;;;;;;;;;;5011432;28;20491;-46
2024/03/21 11:57:56;;;;;;;247.83;89.13;;;;;;;;;;5011243;28;20435;-44
2024/03/21 12:00:22;;;;;;;248.77;89.53;;;;;;;;;;5011435;28;20481;-44
2024/03/21 12:02:51;;;;;;;249.27;89.43;;;;;;;;;;5011433;28;20426;-44
2024/03/21 12:05:17;;;;;;;250.00;93.47;;;;;;;;;;5011243;28;20509;-44
2024/03/21 12:07:43;;;;;;;247.37;91.97;;;;;;;;;;5011292;28;20485;-44
2024/03/21 12:10:10;;;;;;;246.10;89.20;;;;;;;;;;5011338;28;20530;-44
2024/03/21 12:12:36;;;;;;;247.90;91.90;;;;;;;;;;5011230;28;20785;-44
2024/03/21 12:15:03;;;;;;;244.00;85.33;;;;;;;;;;5010687;28;20428;-45
2024/03/21 12:17:29;;;;;;;245.77;86.63;;;;;;;;;;5011145;28;20438;-44
2024/03/21 12:19:55;;;;;;;244.37;86.20;;;;;;;;;;5011228;28;20418;-44
2024/03/21 12:22:22;;;;;;;243.47;85.17;;;;;;;;;;5011169;28;20421;-44
2024/03/21 12:24:48;;;;;;;244.83;86.90;;;;;;;;;;5011535;28;20458;-44
2024/03/21 12:27:14;;;;;;;245.50;85.57;;;;;;;;;;5010924;28;20801;-44
2024/03/21 12:29:40;;;;;;;245.97;86.77;;;;;;;;;;5010907;28;20491;-44
2024/03/21 12:32:07;;;;;;;239.57;79.57;;;;;;;;;;5011053;28;20420;-44
2024/03/21 12:34:33;;;;;;;243.97;85.97;;;;;;;;;;5011126;28;20902;-44
2024/03/21 12:36:59;;;;;;;243.07;84.70;;;;;;;;;;5011210;28;20455;-44
2024/03/21 12:39:24;;;;;;;243.53;83.83;;;;;;;;;;5010958;28;20414;-44
2024/03/21 12:41:52;;;;;;;241.23;82.47;;;;;;;;;;5010931;28;20498;-44
2024/03/21 12:44:18;;;;;;;242.30;81.93;;;;;;;;;;5010935;28;20421;-44
2024/03/21 12:46:44;;;;;;;244.97;85.57;;;;;;;;;;5010420;28;20473;-43
2024/03/21 12:49:10;;;;;;;241.50;83.47;;;;;;;;;;5011265;28;20425;-44
2024/03/21 12:51:36;;;;;;;245.93;87.77;;;;;;;;;;5011801;28;20444;-44
2024/03/21 12:54:02;;;;;;;244.00;82.93;;;;;;;;;;5010833;28;20495;-44
2024/03/21 12:56:28;;;;;;;246.43;89.93;;;;;;;;;;5010528;28;20429;-44
2024/03/21 12:58:54;;;;;;;245.80;87.47;;;;;;;;;;5010970;28;20776;-44
2024/03/21 13:01:20;;;;;;;248.93;92.27;;;;;;;;;;5011158;28;20544;-44
2024/03/21 13:03:46;;;;;;;244.83;88.27;;;;;;;;;;5010803;28;20418;-44
2024/03/21 13:06:12;;;;;;;246.40;91.00;;;;;;;;;;5010415;28;20466;-44
2024/03/21 13:08:38;;;;;;;255.00;93.23;;;;;;;;;;5008956;28;20755;-44
2024/03/21 13:11:04;;;;;;;244.33;87.03;;;;;;;;;;5013168;28;20465;-44
2024/03/21 13:13:30;;;;;;;246.47;87.60;;;;;;;;;;5010844;28;20413;-43
2024/03/21 13:15:56;;;;;;;243.70;86.90;;;;;;;;;;5010387;28;20529;-43
2024/03/21 13:18:22;;;;;;;248.70;90.87;;;;;;;;;;5010628;28;20418;-44
2024/03/21 13:20:48;;;;;;;243.87;84.90;;;;;;;;;;5010676;28;20421;-43
2024/03/21 13:23:15;;;;;;;247.07;89.83;;;;;;;;;;5010832;28;20414;-44
2024/03/21 13:25:41;;;;;;;243.27;84.97;;;;;;;;;;5010381;28;20467;-44
2024/03/21 13:28:07;;;;;;;244.10;84.93;;;;;;;;;;5014181;28;20413;-44
2024/03/21 13:30:33;;;;;;;242.87;84.50;;;;;;;;;;5014176;28;20416;-44
2024/03/21 13:33:00;;;;;;;245.27;87.43;;;;;;;;;;5014285;28;20413;-44
2024/03/21 13:35:26;;;;;;;248.80;91.20;;;;;;;;;;5013409;28;20418;-44
2024/03/21 13:37:53;;;;;;;250.53;94.13;;;;;;;;;;5011508;28;20987;-44
2024/03/21 13:40:21;;;;;;;245.17;90.17;;;;;;;;;;5012449;28;20899;-44
2024/03/21 13:42:47;;;;;;;248.10;92.80;;;;;;;;;;5013912;28;20478;-44
2024/03/21 13:45:13;;;;;;;254.00;97.37;;;;;;;;;;5012540;28;20459;-44
2024/03/21 13:47:39;;;;;;;246.43;89.87;;;;;;;;;;5013058;28;20437;-44
2024/03/21 13:50:12;;;;;;;245.13;86.20;;;;;;;;;;5013731;28;20467;-43
2024/03/21 13:52:38;;;;;;;242.97;84.10;;;;;;;;;;5014232;28;20788;-43
2024/03/21 13:55:05;;;;;;;252.47;94.97;;;;;;;;;;5012444;28;20422;-43
2024/03/21 13:57:34;;;;;;;248.23;89.33;;;;;;;;;;5013393;28;20954;-44
2024/03/21 14:00:00;;;;;;;242.00;84.00;;;;;;;;;;5013781;28;20414;-43
2024/03/21 14:02:30;;;;;;;244.67;86.47;;;;;;;;;;5013656;28;20476;-44
2024/03/21 14:04:56;;;;;;;244.40;86.47;;;;;;;;;;5013483;28;20458;-44